Time;durP1;ratioP1;P1;durP2;ratioP2;P2;SDS_P1;SDS_P2;PMS_P1;PMS_P2;Temp;Humidity;BMP_temperature;BMP_pressure;BME280_temperature;BME280_humidity;BME280_pressure;Samples;Min_cycle;Max_cycle;Signal;HPM_P1;HPM_P2
2022/05/13 00:00:43;;;;;;;2.20;0.70;;;;;;;31.58;20.06;98290.47;5066259;28;20028;-79
2022/05/13 00:03:09;;;;;;;0.82;0.55;;;;;;;31.29;20.53;98293.13;5065869;28;20052;-80
2022/05/13 00:05:36;;;;;;;0.85;0.70;;;;;;;30.96;20.62;98290.22;5048628;28;20082;-80
2022/05/13 00:08:02;;;;;;;2.38;0.75;;;;;;;30.49;21.28;98284.25;5066146;28;20393;-80
2022/05/13 00:10:29;;;;;;;2.53;0.93;;;;;;;30.36;21.64;98286.47;5066742;28;20040;-80
2022/05/13 00:12:55;;;;;;;7.82;0.88;;;;;;;30.67;20.84;98293.53;5066587;28;20052;-80
2022/05/13 00:15:25;;;;;;;1.60;0.88;;;;;;;31.04;20.39;98282.16;5068054;28;20048;-80
2022/05/13 00:17:54;;;;;;;2.10;0.80;;;;;;;31.11;19.91;98285.44;5065356;28;20048;-80
2022/05/13 00:20:21;;;;;;;3.53;0.98;;;;;;;31.34;19.50;98290.41;5062525;28;20704;-79
2022/05/13 00:22:55;;;;;;;1.45;0.65;;;;;;;31.57;19.33;98288.94;5064107;28;20075;-80
2022/05/13 00:25:24;;;;;;;1.50;0.88;;;;;;;31.90;19.91;98292.50;5064921;28;20075;-79
2022/05/13 00:27:53;;;;;;;1.83;0.90;;;;;;;32.04;19.35;98291.06;5067385;28;20500;-79
2022/05/13 00:30:19;;;;;;;1.92;0.85;;;;;;;31.47;20.07;98278.88;5067214;28;20032;-79
2022/05/13 00:32:45;;;;;;;1.83;0.82;;;;;;;31.35;20.19;98265.66;5067655;28;20033;-80
2022/05/13 00:35:11;;;;;;;1.35;0.70;;;;;;;31.71;19.58;98259.84;5045693;28;20029;-79
2022/05/13 00:37:38;;;;;;;4.10;1.13;;;;;;;31.99;19.36;98261.25;5068728;28;20056;-80
2022/05/13 00:40:05;;;;;;;2.25;0.90;;;;;;;32.18;19.30;98261.13;5068494;28;20099;-80
2022/05/13 00:42:31;;;;;;;4.53;0.70;;;;;;;31.66;19.77;98265.38;5066486;28;20025;-79
2022/05/13 00:44:58;;;;;;;0.95;0.70;;;;;;;31.05;20.27;98264.66;5067785;28;20061;-80
2022/05/13 00:47:25;;;;;;;2.35;0.70;;;;;;;31.37;19.75;98271.63;5067436;28;20032;-80
2022/05/13 00:49:53;;;;;;;2.10;0.70;;;;;;;31.72;19.14;98250.03;5066299;28;20037;-79
2022/05/13 00:52:19;;;;;;;1.52;1.02;;;;;;;31.73;20.03;98257.28;5067869;28;20028;-79
2022/05/13 00:54:45;;;;;;;1.38;0.90;;;;;;;30.39;21.29;98257.19;5065305;28;20037;-79
2022/05/13 00:57:12;;;;;;;1.27;0.68;;;;;;;30.34;21.48;98267.09;5062087;28;20028;-79
2022/05/13 00:59:40;;;;;;;1.10;0.70;;;;;;;30.90;20.22;98257.31;5062675;28;20040;-79
2022/05/13 01:02:07;;;;;;;1.65;1.30;;;;;;;31.39;20.08;98261.38;5064176;28;20029;-80
2022/05/13 01:04:35;;;;;;;5.18;1.27;;;;;;;30.74;21.00;98267.69;5047033;28;20040;-79
2022/05/13 01:07:17;;;;;;;1.42;0.98;;;;;;;29.78;21.60;98270.31;5065587;28;20123;-79
2022/05/13 01:09:49;;;;;;;5.15;0.85;;;;;;;30.22;21.75;98268.03;5064690;28;20029;-79
2022/05/13 01:12:21;;;;;;;4.63;1.58;;;;;;;30.78;20.66;98273.97;5067501;28;20499;-79
2022/05/13 01:14:52;;;;;;;1.52;0.68;;;;;;;31.26;19.58;98283.50;5069548;28;20537;-79
2022/05/13 01:20:08;;;;;;;2.53;0.95;;;;;;;31.92;19.57;98270.13;5067542;28;20043;-79
2022/05/13 01:22:44;;;;;;;1.10;0.57;;;;;;;31.83;19.56;98272.22;5067941;28;20044;-79
2022/05/13 01:25:12;;;;;;;2.63;0.70;;;;;;;31.66;19.89;98259.69;5067080;28;20493;-79
2022/05/13 01:27:41;;;;;;;1.13;0.80;;;;;;;30.91;21.01;98258.88;5069020;28;20028;-79
2022/05/13 01:30:09;;;;;;;1.05;0.70;;;;;;;30.39;21.65;98255.16;5068402;28;20029;-79
2022/05/13 01:32:35;;;;;;;3.42;0.80;;;;;;;29.92;21.91;98240.66;5066592;28;20045;-79
2022/05/13 01:35:01;;;;;;;3.70;1.30;;;;;;;30.06;21.67;98242.84;5069569;28;20035;-79
2022/05/13 01:37:27;;;;;;;1.02;0.70;;;;;;;30.51;21.07;98242.84;5068908;28;20033;-79
2022/05/13 01:39:54;;;;;;;1.73;0.68;;;;;;;30.64;21.13;98234.19;5068502;28;20039;-79
2022/05/13 01:42:20;;;;;;;2.28;0.82;;;;;;;30.04;21.87;98234.03;5068265;28;20047;-79
2022/05/13 01:44:46;;;;;;;1.98;0.75;;;;;;;29.52;22.63;98237.88;5070485;28;20040;-80
2022/05/13 01:47:12;;;;;;;1.08;0.70;;;;;;;29.76;21.79;98250.19;5070274;28;20079;-80
2022/05/13 01:49:38;;;;;;;1.02;0.73;;;;;;;29.94;21.67;98246.63;5070754;28;20474;-80
2022/05/13 01:52:04;;;;;;;1.02;0.70;;;;;;;30.23;21.19;98246.94;5070628;28;20486;-80
2022/05/13 01:54:30;;;;;;;1.83;0.85;;;;;;;30.49;20.83;98239.72;5071076;28;20032;-80
2022/05/13 01:56:56;;;;;;;2.58;0.80;;;;;;;29.93;21.56;98237.34;5071016;28;20032;-80
2022/05/13 01:59:22;;;;;;;2.13;0.68;;;;;;;29.59;21.96;98240.41;5071414;28;20035;-80
2022/05/13 02:01:48;;;;;;;1.23;0.90;;;;;;;29.93;21.39;98240.16;5068651;28;20460;-80
2022/05/13 02:04:14;;;;;;;0.65;0.60;;;;;;;30.31;21.14;98239.72;5069023;28;20033;-80
2022/05/13 02:06:40;;;;;;;1.38;0.80;;;;;;;30.55;21.02;98242.72;5050126;28;20073;-80
2022/05/13 02:09:06;;;;;;;2.47;0.82;;;;;;;29.80;21.60;98230.25;5071027;28;20069;-80
2022/05/13 02:11:32;;;;;;;1.95;1.02;;;;;;;29.61;21.76;98218.06;5068000;28;20025;-78
2022/05/13 02:13:59;;;;;;;1.42;0.60;;;;;;;29.97;21.40;98223.78;5066639;28;20047;-78
2022/05/13 02:16:25;;;;;;;0.77;0.63;;;;;;;30.40;20.78;98222.72;5067126;28;20043;-79
2022/05/13 02:18:51;;;;;;;2.08;0.88;;;;;;;30.42;21.02;98219.41;5068530;28;20394;-79
2022/05/13 02:21:18;;;;;;;1.38;0.70;;;;;;;30.42;21.17;98217.38;5067882;28;20029;-79
2022/05/13 02:23:45;;;;;;;3.05;1.00;;;;;;;30.72;20.06;98224.88;5067182;28;20536;-79
2022/05/13 02:26:13;;;;;;;2.15;0.95;;;;;;;30.61;20.30;98212.47;5067988;28;20033;-79
2022/05/13 02:28:39;;;;;;;1.15;0.77;;;;;;;30.10;21.00;98212.34;5067496;28;20066;-79
2022/05/13 02:31:06;;;;;;;2.10;0.60;;;;;;;30.24;21.17;98214.53;5069892;28;20081;-79
2022/05/13 02:33:33;;;;;;;3.08;0.70;;;;;;;30.57;20.26;98217.50;5069182;28;20024;-79
2022/05/13 02:36:00;;;;;;;2.00;0.75;;;;;;;30.65;20.25;98225.19;5069322;28;20051;-79
2022/05/13 02:38:26;;;;;;;1.48;0.57;;;;;;;30.60;20.42;98227.88;5069092;28;20842;-80
2022/05/13 02:43:38;;;;;;;2.55;1.67;;;;;;;30.95;20.03;98216.97;5067705;28;20051;-80
2022/05/13 02:46:05;;;;;;;2.17;0.82;;;;;;;30.71;20.79;98209.09;5067601;28;20055;-80
2022/05/13 02:48:31;;;;;;;0.80;0.63;;;;;;;30.86;19.95;98219.78;5068726;28;20032;-80
2022/05/13 02:50:57;;;;;;;2.60;0.63;;;;;;;31.05;20.14;98221.31;5068260;28;20033;-80
2022/05/13 02:53:24;;;;;;;4.82;0.70;;;;;;;31.12;19.97;98218.16;5069366;28;20029;-79
2022/05/13 02:55:50;;;;;;;1.05;0.70;;;;;;;31.26;19.78;98217.47;5067425;28;20735;-79
2022/05/13 02:58:17;;;;;;;3.60;0.80;;;;;;;31.02;20.58;98228.75;5067782;28;20067;-79
2022/05/13 03:00:44;;;;;;;2.50;1.67;;;;;;;31.07;20.06;98221.63;5065708;28;20045;-79
2022/05/13 03:03:11;;;;;;;2.08;0.82;;;;;;;31.21;19.88;98226.63;5049682;28;20115;-79
2022/05/13 03:05:38;;;;;;;0.60;0.57;;;;;;;31.23;20.12;98236.22;5066656;28;20079;-79
2022/05/13 03:08:06;;;;;;;1.75;0.80;;;;;;;31.22;20.09;98225.38;5065364;28;20048;-79
2022/05/13 03:10:36;;;;;;;1.90;0.70;;;;;;;30.89;20.50;98227.38;5065827;28;20481;-79
2022/05/13 03:13:03;;;;;;;1.95;1.05;;;;;;;30.58;21.17;98222.69;5067122;28;20062;-79
2022/05/13 03:15:30;;;;;;;1.33;0.90;;;;;;;30.78;20.59;98230.69;5069392;28;20559;-79
2022/05/13 03:17:56;;;;;;;1.27;0.77;;;;;;;30.75;20.58;98228.81;5067686;28;20371;-79
2022/05/13 03:20:22;;;;;;;2.08;1.00;;;;;;;30.70;20.96;98232.28;5067391;28;20032;-79
2022/05/13 03:22:51;;;;;;;0.77;0.75;;;;;;;30.59;21.21;98240.50;5066796;28;20094;-79
2022/05/13 03:25:18;;;;;;;1.10;0.60;;;;;;;30.75;20.50;98237.31;5067143;28;20037;-79
2022/05/13 03:27:44;;;;;;;2.03;1.00;;;;;;;30.92;20.73;98226.44;5066000;28;20029;-79
2022/05/13 03:30:14;;;;;;;1.02;0.90;;;;;;;31.00;20.63;98227.66;5066331;28;20090;-79
2022/05/13 03:32:41;;;;;;;1.50;0.88;;;;;;;31.01;20.65;98224.34;5064715;28;20401;-79
2022/05/13 03:35:10;;;;;;;1.23;0.80;;;;;;;30.84;20.92;98223.09;5066705;28;20028;-79
2022/05/13 03:37:36;;;;;;;1.83;1.13;;;;;;;30.25;21.51;98218.91;5066251;28;20032;-79
2022/05/13 03:40:03;;;;;;;1.08;0.73;;;;;;;29.97;21.62;98228.66;5065271;28;20037;-79
2022/05/13 03:42:30;;;;;;;2.80;1.00;;;;;;;29.78;21.98;98225.03;5066385;28;20413;-79
2022/05/13 03:44:56;;;;;;;1.08;0.70;;;;;;;30.23;21.41;98221.44;5066359;28;20398;-79
2022/05/13 03:47:22;;;;;;;0.85;0.70;;;;;;;30.57;21.51;98223.19;5067399;28;20098;-79
2022/05/13 03:49:48;;;;;;;0.73;0.73;;;;;;;30.89;20.74;98221.69;5065397;28;20115;-79
2022/05/13 03:52:15;;;;;;;1.42;0.98;;;;;;;31.14;20.48;98219.25;5064707;28;20052;-79
2022/05/13 03:54:41;;;;;;;1.85;0.80;;;;;;;31.00;20.38;98230.47;5065041;28;20486;-79
2022/05/13 03:57:08;;;;;;;1.30;0.90;;;;;;;30.54;21.27;98229.78;5066574;28;20079;-81
2022/05/13 03:59:35;;;;;;;1.10;0.65;;;;;;;30.72;20.87;98230.53;5066979;28;20085;-80
2022/05/13 04:02:02;;;;;;;1.08;0.60;;;;;;;30.69;20.97;98239.22;5062082;28;20035;-80
2022/05/13 04:04:29;;;;;;;1.95;0.73;;;;;;;30.64;21.03;98234.94;5067225;28;20032;-81
2022/05/13 04:09:41;;;;;;;1.08;0.70;;;;;;;30.89;21.08;98242.34;5062020;28;20086;-81
2022/05/13 04:17:39;;;;;;;4.25;0.80;;;;;;;31.55;20.58;98240.38;5069823;28;20039;-81
2022/05/13 04:20:06;;;;;;;1.10;0.70;;;;;;;31.29;21.59;98250.56;5068543;28;20158;-81
2022/05/13 04:22:32;;;;;;;3.28;0.90;;;;;;;30.96;22.01;98244.84;5068487;28;20043;-81
2022/05/13 04:24:59;;;;;;;0.93;0.60;;;;;;;30.81;22.26;98245.97;5073569;28;20043;-81
2022/05/13 04:27:25;;;;;;;1.38;0.75;;;;;;;31.09;22.18;98253.13;5065543;28;20021;-82
2022/05/13 04:29:52;;;;;;;0.80;0.70;;;;;;;31.57;21.42;98246.34;5066621;28;20024;-78
2022/05/13 04:32:18;;;;;;;1.85;0.60;;;;;;;31.80;21.56;98254.09;5065387;28;20039;-78
2022/05/13 04:34:44;;;;;;;1.25;0.75;;;;;;;31.72;21.77;98258.53;5045041;28;20044;-78
2022/05/13 04:37:10;;;;;;;1.27;0.82;;;;;;;32.09;20.96;98251.38;5065373;28;20040;-78
2022/05/13 04:39:36;;;;;;;1.17;0.75;;;;;;;32.35;20.49;98245.97;5065330;28;20040;-78
2022/05/13 04:44:47;;;;;;;7.13;1.70;;;;;;;32.44;19.95;98240.19;5066816;28;20521;-78
2022/05/13 04:49:59;;;;;;;1.27;0.98;;;;;;;32.45;20.98;98240.97;5057987;28;20123;-79
2022/05/13 04:52:25;;;;;;;1.58;0.90;;;;;;;31.98;21.68;98248.31;5068824;28;20116;-76
2022/05/13 04:54:51;;;;;;;3.08;1.00;;;;;;;31.97;21.29;98252.41;5068886;28;20036;-77
2022/05/13 04:57:17;;;;;;;1.38;0.77;;;;;;;32.24;21.55;98256.31;5049480;28;20032;-76
2022/05/13 04:59:43;;;;;;;2.70;1.27;;;;;;;32.52;21.09;98252.00;5068371;28;20036;-76
2022/05/13 05:02:09;;;;;;;3.78;0.90;;;;;;;32.70;21.12;98263.19;5067848;28;20029;-77
2022/05/13 05:04:35;;;;;;;2.15;1.58;;;;;;;32.74;20.27;98267.41;5069975;28;20466;-77
2022/05/13 05:07:01;;;;;;;2.65;0.93;;;;;;;32.63;20.52;98269.25;5068450;28;20044;-77
2022/05/13 05:09:28;;;;;;;4.00;1.58;;;;;;;32.18;21.07;98270.44;5056916;28;20450;-77
2022/05/13 05:11:54;;;;;;;1.92;1.60;;;;;;;31.86;21.40;98276.91;5068468;28;20043;-77
2022/05/13 05:14:20;;;;;;;2.17;1.35;;;;;;;31.54;22.17;98272.06;5070112;28;20506;-77
2022/05/13 05:16:46;;;;;;;1.98;1.50;;;;;;;31.23;22.26;98273.09;5048379;28;20059;-77
2022/05/13 05:19:13;;;;;;;3.05;1.60;;;;;;;31.10;22.43;98278.22;5071929;28;20032;-77
2022/05/13 05:21:39;;;;;;;2.05;1.23;;;;;;;31.47;22.48;98281.72;5066399;28;20111;-79
2022/05/13 05:24:05;;;;;;;2.13;1.30;;;;;;;31.90;21.77;98283.97;5073194;28;20029;-78
2022/05/13 05:26:31;;;;;;;3.20;1.40;;;;;;;32.37;21.17;98288.88;5064401;28;20111;-79
2022/05/13 05:28:57;;;;;;;2.35;1.33;;;;;;;32.68;21.02;98286.44;5073671;28;20040;-78
2022/05/13 05:31:23;;;;;;;3.35;1.85;;;;;;;32.75;20.96;98273.91;5074322;28;20060;-79
2022/05/13 05:33:49;;;;;;;3.45;1.85;;;;;;;32.57;21.07;98265.53;5074589;28;20425;-78
2022/05/13 05:36:15;;;;;;;3.47;1.52;;;;;;;32.67;20.78;98256.44;5073903;28;20428;-78
2022/05/13 05:38:41;;;;;;;3.92;1.38;;;;;;;32.80;21.48;98256.16;5069785;28;20401;-79
2022/05/13 05:41:07;;;;;;;4.22;1.65;;;;;;;32.82;21.20;98261.34;5071573;28;20029;-79
2022/05/13 05:43:35;;;;;;;1.65;1.50;;;;;;;33.05;21.03;98264.13;5073066;28;20486;-79
2022/05/13 05:46:01;;;;;;;2.17;1.15;;;;;;;33.40;21.02;98258.47;5073197;28;20028;-79
2022/05/13 05:48:28;;;;;;;3.08;1.48;;;;;;;33.58;20.55;98246.91;5051299;28;20052;-78
2022/05/13 05:50:56;;;;;;;1.90;1.00;;;;;;;33.24;21.31;98259.78;5073242;28;20033;-79
2022/05/13 05:58:57;;;;;;;2.42;1.35;;;;;;;33.58;20.50;98266.03;5071874;28;20090;-79
2022/05/13 06:01:23;;;;;;;3.72;1.70;;;;;;;33.86;19.93;98273.72;5073803;28;20409;-79
2022/05/13 06:03:49;;;;;;;2.75;0.80;;;;;;;33.82;19.65;98273.13;5073633;28;20048;-79
2022/05/13 06:06:15;;;;;;;1.40;0.73;;;;;;;33.64;19.98;98279.06;5073343;28;20082;-79
2022/05/13 06:08:41;;;;;;;2.05;1.00;;;;;;;33.66;20.13;98275.72;5075669;28;20036;-79
2022/05/13 06:11:09;;;;;;;2.83;1.10;;;;;;;33.66;19.29;98267.19;5073222;28;20032;-79
2022/05/13 06:13:35;;;;;;;2.17;0.75;;;;;;;33.72;19.79;98266.00;5073044;28;20520;-79
2022/05/13 06:16:02;;;;;;;2.72;0.75;;;;;;;34.19;19.46;98261.22;5073373;28;20036;-79
2022/05/13 06:18:28;;;;;;;2.05;1.15;;;;;;;34.65;18.67;98259.19;5073489;28;20028;-79
2022/05/13 06:20:55;;;;;;;2.65;1.00;;;;;;;34.79;19.26;98254.66;5072619;28;20046;-79
2022/05/13 06:23:21;;;;;;;1.80;0.70;;;;;;;34.88;18.46;98260.97;5073313;28;20032;-79
2022/05/13 06:25:47;;;;;;;1.92;1.00;;;;;;;34.63;18.45;98256.06;5071987;28;20458;-79
2022/05/13 06:28:13;;;;;;;1.00;0.90;;;;;;;34.83;18.94;98270.25;5073392;28;20028;-79
2022/05/13 06:30:40;;;;;;;2.47;1.10;;;;;;;35.12;17.83;98261.50;5073139;28;20024;-79
2022/05/13 06:33:06;;;;;;;2.38;0.80;;;;;;;34.95;18.21;98262.59;5076572;28;20040;-79
2022/05/13 06:35:33;;;;;;;1.00;0.90;;;;;;;34.67;18.65;98260.25;5052909;28;20029;-79
2022/05/13 06:38:00;;;;;;;2.42;0.90;;;;;;;34.99;18.66;98255.34;5071524;28;20129;-79
2022/05/13 06:40:26;;;;;;;0.50;0.50;;;;;;;35.53;18.08;98258.44;5071856;28;20039;-79
2022/05/13 06:42:52;;;;;;;1.15;0.70;;;;;;;35.82;17.83;98243.84;5073278;28;20116;-79
2022/05/13 06:45:19;;;;;;;1.33;0.70;;;;;;;35.76;18.03;98249.50;5073120;28;20028;-79
2022/05/13 06:47:45;;;;;;;0.70;0.60;;;;;;;35.89;18.03;98243.34;5071640;28;20028;-79
2022/05/13 06:50:16;;;;;;;1.30;0.98;;;;;;;36.08;18.22;98238.00;5072014;28;20389;-79
2022/05/13 06:52:43;;;;;;;1.63;0.80;;;;;;;36.13;17.07;98240.13;5072858;28;20060;-79
2022/05/13 06:55:13;;;;;;;0.77;0.60;;;;;;;36.00;17.71;98249.94;5067305;28;20046;-79
2022/05/13 06:57:39;;;;;;;1.20;0.63;;;;;;;35.88;18.14;98245.41;5072049;28;20033;-79
2022/05/13 07:00:09;;;;;;;2.35;0.70;;;;;;;35.81;17.50;98242.25;5072683;28;20510;-79
2022/05/13 07:02:35;;;;;;;2.63;0.70;;;;;;;35.63;17.38;98240.59;5070897;28;20039;-79
2022/05/13 07:05:01;;;;;;;1.58;0.80;;;;;;;35.88;17.80;98242.56;5071650;28;20090;-79
2022/05/13 07:07:28;;;;;;;1.70;0.60;;;;;;;36.14;17.37;98244.53;5072310;28;20036;-80
2022/05/13 07:09:54;;;;;;;1.67;0.57;;;;;;;36.32;16.50;98236.28;5072549;28;20093;-80
2022/05/13 07:12:20;;;;;;;3.80;0.52;;;;;;;36.18;16.93;98230.75;5062030;28;20036;-80
2022/05/13 07:14:46;;;;;;;0.93;0.57;;;;;;;36.01;16.53;98239.28;5071515;28;20044;-80
2022/05/13 07:17:12;;;;;;;0.73;0.50;;;;;;;35.81;17.17;98240.19;5072029;28;20029;-80
2022/05/13 07:19:38;;;;;;;3.42;0.70;;;;;;;35.96;17.95;98237.16;5071435;28;20170;-79
2022/05/13 07:22:06;;;;;;;1.88;0.40;;;;;;;36.29;16.83;98243.03;5071389;28;20115;-80
2022/05/13 07:24:32;;;;;;;0.68;0.50;;;;;;;36.70;16.08;98229.91;5071393;28;20035;-80
2022/05/13 07:26:58;;;;;;;1.75;0.50;;;;;;;36.30;16.01;98227.44;5071744;28;20049;-79
2022/05/13 07:29:24;;;;;;;1.35;0.40;;;;;;;36.06;15.96;98229.94;5071432;28;20032;-80
2022/05/13 07:31:50;;;;;;;2.28;0.50;;;;;;;36.03;16.83;98228.13;5068390;28;20036;-80
2022/05/13 07:34:16;;;;;;;0.88;0.63;;;;;;;36.00;16.73;98232.00;5069983;28;20032;-80
2022/05/13 07:36:42;;;;;;;1.25;0.52;;;;;;;36.00;15.43;98232.00;5071816;28;20036;-79
2022/05/13 07:41:53;;;;;;;1.85;0.60;;;;;;;36.61;15.51;98232.22;5070380;28;20058;-80
2022/05/13 07:44:19;;;;;;;1.92;0.85;;;;;;;36.65;15.56;98222.09;5071557;28;20074;-80
2022/05/13 07:46:45;;;;;;;0.63;0.40;;;;;;;36.39;16.64;98226.41;5071560;28;20029;-80
2022/05/13 07:49:11;;;;;;;2.00;0.60;;;;;;;36.67;16.16;98221.56;5071246;28;20108;-80
2022/05/13 07:51:37;;;;;;;0.50;0.50;;;;;;;36.93;15.53;98221.38;5071451;28;20062;-80
2022/05/13 07:54:04;;;;;;;0.93;0.43;;;;;;;36.73;14.88;98223.16;5071667;28;20119;-80
2022/05/13 07:56:30;;;;;;;0.52;0.40;;;;;;;36.46;14.75;98223.09;5059370;28;20060;-80
2022/05/13 07:58:57;;;;;;;0.43;0.30;;;;;;;36.36;15.17;98224.59;5068212;28;20440;-80
2022/05/13 08:01:24;;;;;;;0.68;0.30;;;;;;;36.78;15.62;98218.75;5070345;28;20035;-80
2022/05/13 08:03:50;;;;;;;0.28;0.25;;;;;;;37.25;15.15;98220.59;5071037;28;20467;-80
2022/05/13 08:06:17;;;;;;;0.80;0.50;;;;;;;37.49;15.71;98222.16;5071054;28;20029;-80
2022/05/13 08:08:45;;;;;;;4.88;0.40;;;;;;;37.46;15.80;98218.25;5071179;28;20497;-80
2022/05/13 08:11:14;;;;;;;2.25;0.43;;;;;;;37.49;14.51;98208.59;5070166;28;20032;-80
2022/05/13 08:13:41;;;;;;;0.35;0.35;;;;;;;36.70;15.18;98212.75;5072639;28;20049;-80
2022/05/13 08:16:12;;;;;;;0.73;0.32;;;;;;;36.35;16.67;98218.09;5070205;28;20060;-80
2022/05/13 08:18:39;;;;;;;0.30;0.30;;;;;;;36.40;16.81;98216.53;5070075;28;20484;-80
2022/05/13 08:21:06;;;;;;;1.25;0.40;;;;;;;36.76;16.45;98223.41;5070835;28;20115;-80
2022/05/13 08:23:32;;;;;;;1.00;0.43;;;;;;;36.99;16.55;98220.09;5070074;28;20033;-80
2022/05/13 08:25:58;;;;;;;0.40;0.38;;;;;;;36.93;16.15;98219.28;5070764;28;20162;-80
2022/05/13 08:28:25;;;;;;;2.08;0.40;;;;;;;37.02;15.29;98206.78;5071102;28;20020;-80
2022/05/13 08:30:52;;;;;;;1.17;0.43;;;;;;;36.86;15.42;98219.78;5070935;28;20115;-80
2022/05/13 08:33:18;;;;;;;1.98;0.55;;;;;;;36.99;15.53;98222.97;5070498;28;20394;-80
2022/05/13 08:35:47;;;;;;;0.90;0.50;;;;;;;37.26;15.37;98222.16;5069694;28;20110;-80
2022/05/13 08:38:21;;;;;;;0.35;0.30;;;;;;;36.81;15.00;98226.28;5061257;28;20029;-79
2022/05/13 08:40:52;;;;;;;0.55;0.40;;;;;;;36.26;15.96;98221.19;5071230;28;20048;-80
2022/05/13 08:43:35;;;;;;;3.92;0.52;;;;;;;35.88;17.07;98219.69;5071068;28;20119;-80
2022/05/13 08:46:16;;;;;;;0.52;0.38;;;;;;;36.42;16.39;98211.09;5069971;28;20036;-80
2022/05/13 08:48:45;;;;;;;1.95;0.50;;;;;;;37.02;15.91;98210.44;5066723;28;20039;-80
2022/05/13 08:51:20;;;;;;;4.43;0.68;;;;;;;37.46;15.83;98206.78;5068174;28;20029;-80
2022/05/13 08:54:14;;;;;;;1.17;0.55;;;;;;;37.17;16.72;98219.56;5071343;28;20086;-80
2022/05/13 08:56:47;;;;;;;4.13;0.60;;;;;;;37.33;15.95;98215.13;5067008;28;20031;-79
2022/05/13 08:59:21;;;;;;;1.10;0.55;;;;;;;37.43;16.18;98213.59;5067240;28;20029;-80
2022/05/13 09:01:53;;;;;;;1.08;0.50;;;;;;;37.83;15.77;98206.47;5068007;28;20131;-80
2022/05/13 09:04:45;;;;;;;1.77;0.70;;;;;;;37.81;15.50;98204.09;5069392;28;20024;-80
2022/05/13 09:07:16;;;;;;;1.42;0.50;;;;;;;36.70;15.84;98203.38;5067533;28;20033;-79
2022/05/13 09:09:43;;;;;;;;;;;;;;;36.34;15.21;98212.91;5067908;28;20036;-79
2022/05/13 09:12:20;;;;;;;0.82;0.63;;;;;;;36.02;16.21;98212.25;5071049;28;19916;-80
2022/05/13 09:15:14;;;;;;;1.73;0.93;;;;;;;35.33;16.86;98222.19;5069863;28;20563;-79
2022/05/13 09:17:44;;;;;;;2.45;0.88;;;;;;;34.85;17.65;98218.38;5067129;28;20041;-79
2022/05/13 09:20:17;;;;;;;1.70;1.17;;;;;;;34.56;17.59;98208.00;5067124;28;20063;-80
2022/05/13 09:22:52;;;;;;;1.52;0.90;;;;;;;34.89;17.50;98214.03;5070278;28;20041;-80
2022/05/13 09:25:49;;;;;;;1.05;0.88;;;;;;;35.52;17.55;98209.13;5069845;28;20119;-80
2022/05/13 09:28:16;;;;;;;1.65;0.90;;;;;;;35.92;17.10;98216.59;5068074;28;20389;-80
2022/05/13 09:30:46;;;;;;;1.13;1.02;;;;;;;35.49;17.57;98221.53;5070802;28;20028;-80
2022/05/13 09:33:25;;;;;;;2.47;0.98;;;;;;;35.20;17.70;98211.19;5070774;28;20033;-80
2022/05/13 09:35:54;;;;;;;1.02;0.90;;;;;;;34.13;18.65;98212.69;5073450;28;20075;-80
2022/05/13 09:38:24;;;;;;;1.52;1.00;;;;;;;34.61;18.66;98213.75;5073359;28;20071;-80
2022/05/13 09:41:05;;;;;;;1.63;1.27;;;;;;;34.11;19.68;98195.31;5074059;28;20462;-80
2022/05/13 09:43:38;;;;;;;1.58;1.05;;;;;;;34.84;18.77;98209.06;5073684;28;20067;-80
2022/05/13 09:46:09;;;;;;;1.83;0.95;;;;;;;34.97;18.25;98202.94;5073272;28;20047;-80
2022/05/13 09:48:51;;;;;;;2.25;1.27;;;;;;;34.52;18.61;98193.13;5064286;28;20063;-80
2022/05/13 09:51:23;;;;;;;2.45;1.05;;;;;;;34.98;18.82;98193.88;5071782;28;20031;-80
2022/05/13 09:54:03;;;;;;;2.10;1.15;;;;;;;35.58;18.12;98192.78;5072314;28;20029;-80
2022/05/13 09:57:04;;;;;;;3.70;1.90;;;;;;;34.91;18.45;98194.34;5075962;28;20036;-80
2022/05/13 09:59:38;;;;;;;5.53;1.45;;;;;;;33.96;19.74;98203.09;5074066;28;20105;-80
2022/05/13 10:02:32;;;;;;;4.22;1.30;;;;;;;34.20;19.32;98188.66;5074462;28;20027;-79
2022/05/13 10:05:21;;;;;;;1.30;1.20;;;;;;;34.19;19.56;98175.69;5071439;28;20029;-80
2022/05/13 10:07:53;;;;;;;4.15;1.92;;;;;;;34.05;19.59;98183.06;5073189;28;20028;-80
2022/05/13 10:16:22;;;;;;;5.40;1.70;;;;;;;35.06;19.10;98177.06;5071377;28;20062;-80
2022/05/13 10:18:56;;;;;;;1.75;1.33;;;;;;;35.51;19.04;98164.69;5070844;28;20052;-80
2022/05/13 10:21:29;;;;;;;6.05;1.30;;;;;;;35.90;18.54;98150.59;5073573;28;20024;-81
2022/05/13 10:24:17;;;;;;;3.63;1.10;;;;;;;35.71;18.67;98146.63;5069987;28;20036;-80
2022/05/13 10:26:45;;;;;;;2.25;1.52;;;;;;;34.92;19.14;98153.06;5070335;28;22893;-80
2022/05/13 10:29:18;;;;;;;3.30;1.30;;;;;;;34.96;19.47;98162.19;5073407;28;20036;-80
2022/05/13 10:31:46;;;;;;;2.75;1.38;;;;;;;34.87;20.66;98148.09;5072640;28;20119;-80
2022/05/13 10:34:43;;;;;;;2.17;1.35;;;;;;;35.80;18.59;98141.44;5071353;28;20058;-80
2022/05/13 10:37:30;;;;;;;1.80;1.00;;;;;;;35.33;18.79;98139.38;5068738;28;20028;-80
2022/05/13 10:40:03;;;;;;;2.78;1.45;;;;;;;35.36;18.77;98130.56;5071585;28;20029;-80
2022/05/13 10:42:39;;;;;;;7.07;1.88;;;;;;;35.51;18.73;98127.56;5071728;28;21289;-80
2022/05/13 10:45:19;;;;;;;2.65;1.30;;;;;;;36.29;18.24;98130.72;5069253;28;20032;-79
2022/05/13 10:48:01;;;;;;;1.52;1.10;;;;;;;36.76;17.96;98126.13;5070888;28;20110;-80
2022/05/13 10:50:33;;;;;;;1.58;1.00;;;;;;;36.34;17.97;98118.53;5071011;28;20482;-80
2022/05/13 10:53:37;;;;;;;3.78;1.10;;;;;;;34.89;20.62;98119.09;5065105;28;20371;-80
2022/05/13 10:56:28;;;;;;;1.70;1.20;;;;;;;36.25;19.31;98108.09;5070452;28;20044;-80
2022/05/13 10:59:35;;;;;;;5.82;1.73;;;;;;;36.59;19.48;98098.28;5047357;28;20091;-80
2022/05/13 11:02:16;;;;;;;1.63;0.90;;;;;;;37.47;17.66;98092.97;5071318;28;20385;-80
2022/05/13 11:05:31;;;;;;;2.58;1.00;;;;;;;37.02;17.64;98090.19;5070166;28;20056;-80
2022/05/13 11:07:57;;;;;;;2.58;0.82;;;;;;;36.55;18.00;98094.13;5072448;28;20029;-80
2022/05/13 11:10:44;;;;;;;2.97;1.60;;;;;;;35.47;19.05;98101.31;5072398;28;20068;-80
2022/05/13 11:13:16;;;;;;;4.15;2.17;;;;;;;35.03;19.95;98095.34;5054228;28;20240;-80
2022/05/13 11:16:21;;;;;;;6.10;1.38;;;;;;;34.78;19.62;98084.75;5071547;28;20033;-79
2022/05/13 11:19:12;;;;;;;1.55;1.17;;;;;;;35.18;19.34;98078.81;5056764;28;20048;-80
2022/05/13 11:21:57;;;;;;;1.20;0.90;;;;;;;35.43;19.44;98080.75;5071223;28;20102;-80
2022/05/13 11:27:34;;;;;;;1.40;0.80;;;;;;;36.27;18.35;98079.00;5071376;28;20075;-80
2022/05/13 11:30:21;;;;;;;1.50;0.80;;;;;;;36.21;19.86;98078.97;5070081;28;20036;-80
2022/05/13 11:33:11;;;;;;;2.85;1.50;;;;;;;36.72;17.87;98074.84;5070865;28;20028;-79
2022/05/13 11:35:41;;;;;;;1.70;0.82;;;;;;;37.17;17.14;98069.88;5071676;28;20036;-79
2022/05/13 11:38:44;;;;;;;3.72;0.93;;;;;;;36.42;19.40;98071.72;5071778;28;20028;-79
2022/05/13 11:41:14;;;;;;;1.52;1.08;;;;;;;35.38;19.06;98070.09;5070303;28;20504;-79
2022/05/13 11:43:46;;;;;;;2.75;1.25;;;;;;;35.12;19.13;98069.44;5072117;28;20036;-79
2022/05/13 11:46:31;;;;;;;2.58;1.58;;;;;;;34.98;19.79;98064.66;5068705;28;20035;-79
2022/05/13 11:49:25;;;;;;;1.38;1.00;;;;;;;36.27;19.46;98058.97;5070290;28;20025;-80
2022/05/13 11:51:52;;;;;;;3.60;1.58;;;;;;;36.97;18.29;98053.75;5071285;28;20040;-80
2022/05/13 11:54:22;;;;;;;2.35;1.20;;;;;;;36.97;17.73;98059.47;5070346;28;20043;-80
2022/05/13 11:56:50;;;;;;;3.37;0.97;;;;;;;37.44;17.85;98051.81;5071675;28;20033;-80
2022/05/13 11:59:41;;;;;;;1.10;0.90;;;;;;;36.92;18.22;98048.06;5072306;28;20032;-80
2022/05/13 12:02:48;;;;;;;0.82;0.80;;;;;;;36.96;18.29;98042.84;5068875;28;20486;-80
2022/05/13 12:05:17;;;;;;;1.92;0.90;;;;;;;35.94;19.14;98034.72;5053588;28;20029;-80
2022/05/13 12:08:08;;;;;;;1.50;0.80;;;;;;;36.24;18.69;98025.69;5070748;28;20032;-79
2022/05/13 12:10:52;;;;;;;1.27;0.90;;;;;;;37.14;17.80;98020.16;5070946;28;20163;-80
2022/05/13 12:13:49;;;;;;;2.17;1.02;;;;;;;37.44;16.55;98019.56;5066714;28;20386;-80
2022/05/13 12:16:39;;;;;;;3.63;0.98;;;;;;;36.12;17.69;98019.19;5068949;28;20539;-80
2022/05/13 12:19:09;;;;;;;1.65;1.10;;;;;;;35.89;17.42;98014.72;5044259;28;20081;-80
2022/05/13 12:21:44;;;;;;;1.13;1.00;;;;;;;35.26;18.91;98005.69;5070260;28;20063;-79
2022/05/13 12:24:10;;;;;;;6.28;1.08;;;;;;;35.13;18.82;98011.84;5071126;28;20071;-79
2022/05/13 12:26:52;;;;;;;2.13;0.90;;;;;;;36.14;17.43;97993.72;5071209;28;20024;-79